Time,TemperatureF,DewpointF,PressureIn,WindDirection,WindDirectionDegrees,WindSpeedMPH,WindSpeedGustMPH,Humidity,HourlyPrecipIn,Conditions,Clouds,dailyrainin,SoftwareType,DateUTC
2013-01-19 00:00:00,68.3,60.1,30.13,East,84,0.0,3.0,75,0.00,,---,0.00,VWS V14.01,2013-01-19 05:00:00,
2013-01-19 00:01:00,66.7,59.3,30.13,ENE,71,2.0,2.0,77,0.00,,---,0.00,VWS V14.01,2013-01-19 05:01:00,
2013-01-19 00:02:00,66.7,59.3,30.13,ENE,75,1.0,2.0,77,0.00,,---,0.00,VWS V14.01,2013-01-19 05:02:00,
2013-01-19 00:03:00,66.8,59.4,30.13,ENE,75,1.0,2.0,77,0.00,,---,0.00,VWS V14.01,2013-01-19 05:03:00,
2013-01-19 00:08:00,67.0,59.2,30.13,ENE,66,0.0,4.0,76,0.00,,---,0.00,VWS V14.01,2013-01-19 05:08:00,
2013-01-19 00:13:00,67.3,59.5,30.13,ENE,60,0.0,4.0,76,0.00,,---,0.00,VWS V14.01,2013-01-19 05:13:00,
2013-01-19 00:18:00,67.6,59.4,30.13,ENE,64,0.0,5.0,75,0.00,,---,0.00,VWS V14.01,2013-01-19 05:18:00,
2013-01-19 00:23:00,67.8,59.6,30.13,East,82,0.0,5.0,75,0.00,,---,0.00,VWS V14.01,2013-01-19 05:23:00,
2013-01-19 00:28:00,67.9,59.7,30.13,East,82,1.0,5.0,75,0.00,,---,0.00,VWS V14.01,2013-01-19 05:28:00,
2013-01-19 00:30:00,68.4,59.8,30.12,ENE,58,0.0,2.0,74,0.00,,---,0.00,VWS V14.01,2013-01-19 05:30:00,
2013-01-19 00:33:00,68.0,59.8,30.13,East,101,0.0,1.0,75,0.00,,---,0.00,VWS V14.01,2013-01-19 05:33:00,
2013-01-19 00:38:00,68.1,60.3,30.13,ENE,74,0.0,2.0,76,0.00,,---,0.00,VWS V14.01,2013-01-19 05:38:00,
2013-01-19 00:43:00,68.1,59.9,30.13,NE,55,1.0,3.0,75,0.00,,---,0.00,VWS V14.01,2013-01-19 05:43:00,
2013-01-19 00:48:00,68.2,60.0,30.13,NE,56,0.0,3.0,75,0.00,,---,0.00,VWS V14.01,2013-01-19 05:48:00,
2013-01-19 00:53:00,68.2,60.0,30.13,East,94,1.0,3.0,75,0.00,,---,0.00,VWS V14.01,2013-01-19 05:53:00,
2013-01-19 00:58:00,68.3,60.1,30.13,East,84,1.0,3.0,75,0.00,,---,0.00,VWS V14.01,2013-01-19 05:58:00,
2013-01-19 01:00:00,67.8,60.0,30.11,ENE,61,0.0,2.0,76,0.00,,---,0.00,VWS V14.01,2013-01-19 06:00:00,
2013-01-19 01:03:00,68.3,60.1,30.13,East,84,0.0,1.0,75,0.00,,---,0.00,VWS V14.01,2013-01-19 06:03:00,
2013-01-19 01:08:00,68.3,60.1,30.12,East,84,0.0,1.0,75,0.00,,---,0.00,VWS V14.01,2013-01-19 06:08:00,
2013-01-19 01:13:00,68.3,60.1,30.12,East,84,0.0,1.0,75,0.00,,---,0.00,VWS V14.01,2013-01-19 06:13:00,
2013-01-19 01:18:00,68.3,59.7,30.12,East,84,1.0,1.0,74,0.00,,---,0.00,VWS V14.01,2013-01-19 06:18:00,
2013-01-19 01:23:00,68.4,59.8,30.12,ENE,71,0.0,2.0,74,0.00,,---,0.00,VWS V14.01,2013-01-19 06:23:00,
2013-01-19 01:28:00,68.4,59.8,30.12,ENE,58,0.0,2.0,74,0.00,,---,0.00,VWS V14.01,2013-01-19 06:28:00,
2013-01-19 01:30:00,67.0,59.9,30.10,ENE,61,0.0,0.0,78,0.00,,---,0.00,VWS V14.01,2013-01-19 06:30:00,
2013-01-19 01:33:00,68.4,59.8,30.12,ENE,58,0.0,1.0,74,0.00,,---,0.00,VWS V14.01,2013-01-19 06:33:00,
2013-01-19 01:38:00,68.4,59.8,30.11,ENE,61,0.0,1.0,74,0.00,,---,0.00,VWS V14.01,2013-01-19 06:38:00,
2013-01-19 01:43:00,68.3,60.1,30.11,ENE,61,0.0,1.0,75,0.00,,---,0.00,VWS V14.01,2013-01-19 06:43:00,
2013-01-19 01:48:00,68.1,59.9,30.11,ENE,61,0.0,2.0,75,0.00,,---,0.00,VWS V14.01,2013-01-19 06:48:00,
2013-01-19 01:53:00,68.0,59.8,30.11,ENE,61,0.0,2.0,75,0.00,,---,0.00,VWS V14.01,2013-01-19 06:53:00,
2013-01-19 01:58:00,67.9,60.1,30.11,ENE,61,0.0,2.0,76,0.00,,---,0.00,VWS V14.01,2013-01-19 06:58:00,
2013-01-19 02:00:00,66.4,59.7,30.10,ENE,61,0.0,1.0,79,0.00,,---,0.00,VWS V14.01,2013-01-19 07:00:00,
2013-01-19 02:03:00,67.7,59.9,30.11,ENE,61,0.0,0.0,76,0.00,,---,0.00,VWS V14.01,2013-01-19 07:03:00,
2013-01-19 02:08:00,67.7,59.9,30.11,ENE,61,0.0,0.0,76,0.00,,---,0.00,VWS V14.01,2013-01-19 07:08:00,
2013-01-19 02:13:00,67.6,59.8,30.11,ENE,61,0.0,0.0,76,0.00,,---,0.00,VWS V14.01,2013-01-19 07:13:00,
2013-01-19 02:18:00,67.4,60.0,30.10,ENE,61,0.0,0.0,77,0.00,,---,0.00,VWS V14.01,2013-01-19 07:18:00,
2013-01-19 02:23:00,67.2,59.8,30.10,ENE,61,0.0,0.0,77,0.00,,---,0.00,VWS V14.01,2013-01-19 07:23:00,
2013-01-19 02:28:00,67.1,59.7,30.10,ENE,61,0.0,0.0,77,0.00,,---,0.00,VWS V14.01,2013-01-19 07:28:00,
2013-01-19 02:30:00,65.8,60.2,30.10,ENE,61,0.0,0.0,82,0.00,,---,0.00,VWS V14.01,2013-01-19 07:30:00,
2013-01-19 02:33:00,66.9,59.8,30.10,ENE,61,0.0,1.0,78,0.00,,---,0.00,VWS V14.01,2013-01-19 07:33:00,
2013-01-19 02:38:00,66.8,59.4,30.10,ENE,61,0.0,1.0,77,0.00,,---,0.00,VWS V14.01,2013-01-19 07:38:00,
2013-01-19 02:43:00,66.7,59.6,30.10,ENE,61,0.0,1.0,78,0.00,,---,0.00,VWS V14.01,2013-01-19 07:43:00,
2013-01-19 02:48:00,66.6,59.9,30.10,ENE,61,0.0,1.0,79,0.00,,---,0.00,VWS V14.01,2013-01-19 07:48:00,
2013-01-19 02:53:00,66.5,59.8,30.10,ENE,61,0.0,1.0,79,0.00,,---,0.00,VWS V14.01,2013-01-19 07:53:00,
2013-01-19 02:58:00,66.4,59.7,30.10,ENE,61,0.0,1.0,79,0.00,,---,0.00,VWS V14.01,2013-01-19 07:58:00,
2013-01-19 03:00:00,65.3,60.0,30.09,ENE,61,0.0,0.0,83,0.00,,---,0.00,VWS V14.01,2013-01-19 08:00:00,
2013-01-19 03:03:00,66.3,59.6,30.10,ENE,61,0.0,0.0,79,0.00,,---,0.00,VWS V14.01,2013-01-19 08:03:00,
2013-01-19 03:08:00,66.2,60.2,30.10,ENE,61,0.0,0.0,81,0.00,,---,0.00,VWS V14.01,2013-01-19 08:08:00,
2013-01-19 03:13:00,66.0,60.0,30.10,ENE,61,0.0,0.0,81,0.00,,---,0.00,VWS V14.01,2013-01-19 08:13:00,
2013-01-19 03:18:00,65.9,59.9,30.09,ENE,61,0.0,0.0,81,0.00,,---,0.00,VWS V14.01,2013-01-19 08:18:00,
2013-01-19 03:23:00,65.9,59.9,30.10,ENE,61,0.0,0.0,81,0.00,,---,0.00,VWS V14.01,2013-01-19 08:23:00,
2013-01-19 03:28:00,65.8,59.8,30.10,ENE,61,0.0,0.0,81,0.00,,---,0.00,VWS V14.01,2013-01-19 08:28:00,
2013-01-19 03:30:00,65.3,60.7,30.09,ENE,61,0.0,0.0,85,0.00,,---,0.00,VWS V14.01,2013-01-19 08:30:00,
2013-01-19 03:33:00,65.7,60.1,30.10,ENE,61,0.0,0.0,82,0.00,,---,0.00,VWS V14.01,2013-01-19 08:33:00,
2013-01-19 03:38:00,65.6,60.0,30.10,ENE,61,0.0,0.0,82,0.00,,---,0.00,VWS V14.01,2013-01-19 08:38:00,
2013-01-19 03:43:00,65.6,60.0,30.10,ENE,61,0.0,0.0,82,0.00,,---,0.00,VWS V14.01,2013-01-19 08:43:00,
2013-01-19 03:48:00,65.5,60.2,30.10,ENE,61,0.0,0.0,83,0.00,,---,0.00,VWS V14.01,2013-01-19 08:48:00,
2013-01-19 03:53:00,65.4,60.1,30.10,ENE,61,0.0,0.0,83,0.00,,---,0.00,VWS V14.01,2013-01-19 08:53:00,
2013-01-19 03:58:00,65.4,60.1,30.10,ENE,61,0.0,0.0,83,0.00,,---,0.00,VWS V14.01,2013-01-19 08:58:00,
2013-01-19 04:00:00,65.4,60.8,30.10,ENE,61,0.0,0.0,85,0.00,,---,0.00,VWS V14.01,2013-01-19 09:00:00,
2013-01-19 04:03:00,65.3,60.0,30.09,ENE,61,0.0,0.0,83,0.00,,---,0.00,VWS V14.01,2013-01-19 09:03:00,
2013-01-19 04:08:00,65.2,60.2,30.09,ENE,61,0.0,0.0,84,0.00,,---,0.00,VWS V14.01,2013-01-19 09:08:00,
2013-01-19 04:13:00,65.2,60.2,30.09,ENE,61,0.0,0.0,84,0.00,,---,0.00,VWS V14.01,2013-01-19 09:13:00,
2013-01-19 04:18:00,65.2,60.2,30.09,ENE,61,0.0,0.0,84,0.00,,---,0.00,VWS V14.01,2013-01-19 09:18:00,
2013-01-19 04:23:00,65.2,60.6,30.09,ENE,61,0.0,0.0,85,0.00,,---,0.00,VWS V14.01,2013-01-19 09:23:00,
2013-01-19 04:28:00,65.3,60.7,30.09,ENE,61,0.0,0.0,85,0.00,,---,0.00,VWS V14.01,2013-01-19 09:28:00,
2013-01-19 04:30:00,65.5,61.2,30.09,ENE,61,0.0,0.0,86,0.00,,---,0.00,VWS V14.01,2013-01-19 09:30:00,
2013-01-19 04:33:00,65.3,60.7,30.09,ENE,61,0.0,0.0,85,0.00,,---,0.00,VWS V14.01,2013-01-19 09:33:00,
2013-01-19 04:38:00,65.3,60.7,30.09,ENE,61,0.0,0.0,85,0.00,,---,0.00,VWS V14.01,2013-01-19 09:38:00,
2013-01-19 04:43:00,65.4,60.8,30.09,ENE,61,0.0,0.0,85,0.00,,---,0.00,VWS V14.01,2013-01-19 09:43:00,
2013-01-19 04:48:00,65.4,60.8,30.09,ENE,61,0.0,0.0,85,0.00,,---,0.00,VWS V14.01,2013-01-19 09:48:00,
2013-01-19 04:53:00,65.4,60.8,30.10,ENE,61,0.0,0.0,85,0.00,,---,0.00,VWS V14.01,2013-01-19 09:53:00,
2013-01-19 04:58:00,65.4,60.8,30.10,ENE,61,0.0,0.0,85,0.00,,---,0.00,VWS V14.01,2013-01-19 09:58:00,
2013-01-19 05:00:00,65.5,61.5,30.10,ENE,61,0.0,0.0,87,0.00,,---,0.00,VWS V14.01,2013-01-19 10:00:00,
2013-01-19 05:03:00,65.4,61.1,30.10,ENE,61,0.0,0.0,86,0.00,,---,0.00,VWS V14.01,2013-01-19 10:03:00,
2013-01-19 05:08:00,65.4,61.1,30.10,ENE,61,0.0,0.0,86,0.00,,---,0.00,VWS V14.01,2013-01-19 10:08:00,
2013-01-19 05:13:00,65.4,61.1,30.10,ENE,61,0.0,0.0,86,0.00,,---,0.00,VWS V14.01,2013-01-19 10:13:00,
2013-01-19 05:18:00,65.4,61.1,30.10,ENE,61,0.0,0.0,86,0.00,,---,0.00,VWS V14.01,2013-01-19 10:18:00,
2013-01-19 05:23:00,65.5,61.2,30.09,ENE,61,0.0,0.0,86,0.00,,---,0.00,VWS V14.01,2013-01-19 10:23:00,
2013-01-19 05:28:00,65.5,61.2,30.10,ENE,61,0.0,0.0,86,0.00,,---,0.00,VWS V14.01,2013-01-19 10:28:00,
2013-01-19 05:30:00,65.5,61.5,30.11,ENE,61,0.0,0.0,87,0.00,,---,0.00,VWS V14.01,2013-01-19 10:30:00,
2013-01-19 05:33:00,65.5,61.2,30.10,ENE,61,0.0,0.0,86,0.00,,---,0.00,VWS V14.01,2013-01-19 10:33:00,
2013-01-19 05:38:00,65.5,61.2,30.10,ENE,61,0.0,0.0,86,0.00,,---,0.00,VWS V14.01,2013-01-19 10:38:00,
2013-01-19 05:43:00,65.5,61.2,30.10,ENE,61,0.0,0.0,86,0.00,,---,0.00,VWS V14.01,2013-01-19 10:43:00,
2013-01-19 05:48:00,65.4,61.4,30.10,ENE,61,0.0,0.0,87,0.00,,---,0.00,VWS V14.01,2013-01-19 10:48:00,
2013-01-19 05:53:00,65.4,61.4,30.10,ENE,61,0.0,0.0,87,0.00,,---,0.00,VWS V14.01,2013-01-19 10:53:00,
2013-01-19 05:58:00,65.5,61.5,30.10,ENE,61,0.0,0.0,87,0.00,,---,0.00,VWS V14.01,2013-01-19 10:58:00,
2013-01-19 06:00:00,65.6,62.0,30.11,ENE,61,0.0,0.0,88,0.00,,---,0.00,VWS V14.01,2013-01-19 11:00:00,
2013-01-19 06:03:00,65.6,61.6,30.10,ENE,61,0.0,0.0,87,0.00,,---,0.00,VWS V14.01,2013-01-19 11:03:00,
2013-01-19 06:08:00,65.6,61.6,30.10,ENE,61,0.0,0.0,87,0.00,,---,0.00,VWS V14.01,2013-01-19 11:08:00,
2013-01-19 06:13:00,65.6,61.6,30.10,ENE,61,0.0,0.0,87,0.00,,---,0.00,VWS V14.01,2013-01-19 11:13:00,
2013-01-19 06:30:00,65.9,61.9,30.12,ENE,61,0.0,1.0,87,0.00,,---,0.00,VWS V14.01,2013-01-19 11:30:00,
2013-01-19 07:00:00,66.3,62.7,30.13,ENE,61,0.0,0.0,88,0.00,,---,0.00,VWS V14.01,2013-01-19 12:00:00,
2013-01-19 07:30:00,68.2,63.5,30.14,NE,53,0.0,0.0,85,0.00,,---,0.00,VWS V14.01,2013-01-19 12:30:00,
2013-01-19 07:47:00,66.0,62.0,30.13,ENE,61,0.0,0.0,87,0.00,,---,0.00,VWS V14.01,2013-01-19 12:47:00,
2013-01-19 07:48:00,66.0,62.0,30.13,ENE,61,0.0,0.0,87,0.00,,---,0.00,VWS V14.01,2013-01-19 12:48:00,
2013-01-19 07:53:00,66.1,62.1,30.13,ENE,61,0.0,0.0,87,0.00,,---,0.00,VWS V14.01,2013-01-19 12:53:00,
2013-01-19 07:58:00,66.3,62.3,30.13,ENE,61,0.0,0.0,87,0.00,,---,0.00,VWS V14.01,2013-01-19 12:58:00,
2013-01-19 08:00:00,68.3,63.3,30.15,NNE,18,0.0,0.0,84,0.00,,---,0.00,VWS V14.01,2013-01-19 13:00:00,
2013-01-19 08:03:00,66.5,62.5,30.13,ENE,61,0.0,0.0,87,0.00,,---,0.00,VWS V14.01,2013-01-19 13:03:00,
2013-01-19 08:08:00,66.9,62.6,30.13,ENE,61,0.0,0.0,86,0.00,,---,0.00,VWS V14.01,2013-01-19 13:08:00,
2013-01-19 08:13:00,67.5,62.8,30.13,NE,53,0.0,0.0,85,0.00,,---,0.00,VWS V14.01,2013-01-19 13:13:00,
2013-01-19 08:18:00,67.9,63.2,30.13,NE,53,0.0,0.0,85,0.00,,---,0.00,VWS V14.01,2013-01-19 13:18:00,
2013-01-19 08:23:00,68.0,63.0,30.13,NE,53,0.0,0.0,84,0.00,,---,0.00,VWS V14.01,2013-01-19 13:23:00,
2013-01-19 08:28:00,68.2,63.5,30.14,NE,53,0.0,0.0,85,0.00,,---,0.00,VWS V14.01,2013-01-19 13:28:00,
2013-01-19 08:30:00,67.1,64.1,30.16,NNE,18,0.0,0.0,90,0.02,,---,0.02,VWS V14.01,2013-01-19 13:30:00,
2013-01-19 08:33:00,68.2,63.9,30.14,NE,53,0.0,0.0,86,0.00,,---,0.00,VWS V14.01,2013-01-19 13:33:00,
2013-01-19 08:38:00,68.3,63.6,30.14,NE,53,0.0,0.0,85,0.00,,---,0.00,VWS V14.01,2013-01-19 13:38:00,
2013-01-19 08:43:00,68.3,63.6,30.14,NE,53,0.0,0.0,85,0.00,,---,0.00,VWS V14.01,2013-01-19 13:43:00,
2013-01-19 08:48:00,68.4,63.4,30.14,NE,53,0.0,0.0,84,0.00,,---,0.00,VWS V14.01,2013-01-19 13:48:00,
2013-01-19 08:53:00,68.4,63.4,30.14,NNE,18,0.0,0.0,84,0.00,,---,0.00,VWS V14.01,2013-01-19 13:53:00,
2013-01-19 08:58:00,68.3,63.3,30.15,NNE,18,0.0,0.0,84,0.00,,---,0.00,VWS V14.01,2013-01-19 13:58:00,
2013-01-19 09:00:00,67.0,64.9,30.18,SE,134,2.0,3.0,93,0.02,,---,0.02,VWS V14.01,2013-01-19 14:00:00,
2013-01-19 09:03:00,68.3,63.3,30.15,NNE,18,0.0,0.0,84,0.00,,---,0.00,VWS V14.01,2013-01-19 14:03:00,
2013-01-19 09:08:00,68.2,63.5,30.15,NNE,18,0.0,0.0,85,0.00,,---,0.00,VWS V14.01,2013-01-19 14:08:00,
2013-01-19 09:13:00,68.1,63.4,30.16,NNE,18,0.0,0.0,85,0.01,,---,0.01,VWS V14.01,2013-01-19 14:13:00,
2013-01-19 09:18:00,68.0,64.0,30.16,NNE,18,0.0,0.0,87,0.02,,---,0.02,VWS V14.01,2013-01-19 14:18:00,
2013-01-19 09:23:00,67.6,63.9,30.16,NNE,18,0.0,0.0,88,0.02,,---,0.02,VWS V14.01,2013-01-19 14:23:00,
2013-01-19 09:28:00,67.2,63.8,30.16,NNE,18,0.0,0.0,89,0.02,,---,0.02,VWS V14.01,2013-01-19 14:28:00,
2013-01-19 09:30:00,66.7,64.9,30.17,SW,225,0.0,3.0,94,0.04,,---,0.04,VWS V14.01,2013-01-19 14:30:00,
2013-01-19 09:33:00,67.0,64.3,30.16,NNE,18,0.0,0.0,91,0.02,,---,0.02,VWS V14.01,2013-01-19 14:33:00,
2013-01-19 09:38:00,66.8,64.1,30.17,NNE,18,0.0,0.0,91,0.02,,---,0.02,VWS V14.01,2013-01-19 14:38:00,
2013-01-19 09:43:00,66.7,64.3,30.17,NNE,18,0.0,0.0,92,0.02,,---,0.02,VWS V14.01,2013-01-19 14:43:00,
2013-01-19 09:48:00,66.7,64.3,30.17,NNE,18,0.0,0.0,92,0.02,,---,0.02,VWS V14.01,2013-01-19 14:48:00,
2013-01-19 09:53:00,66.8,64.7,30.17,SSE,165,2.0,3.0,93,0.02,,---,0.02,VWS V14.01,2013-01-19 14:53:00,
2013-01-19 09:58:00,66.9,64.8,30.17,SSE,167,0.0,3.0,93,0.02,,---,0.02,VWS V14.01,2013-01-19 14:58:00,
2013-01-19 10:00:00,67.7,65.6,30.17,ENE,67,0.0,2.0,93,0.02,,---,0.04,VWS V14.01,2013-01-19 15:00:00,
2013-01-19 10:03:00,66.9,64.5,30.18,SSE,161,1.0,3.0,92,0.02,,---,0.02,VWS V14.01,2013-01-19 15:03:00,
2013-01-19 10:08:00,66.8,64.7,30.18,SSE,161,0.0,3.0,93,0.02,,---,0.02,VWS V14.01,2013-01-19 15:08:00,
2013-01-19 10:13:00,66.7,64.6,30.18,WSW,244,0.0,3.0,93,0.03,,---,0.03,VWS V14.01,2013-01-19 15:13:00,
2013-01-19 10:18:00,66.7,64.6,30.18,SSW,202,0.0,3.0,93,0.03,,---,0.03,VWS V14.01,2013-01-19 15:18:00,
2013-01-19 10:23:00,66.7,64.9,30.18,South,185,0.0,3.0,94,0.03,,---,0.03,VWS V14.01,2013-01-19 15:23:00,
2013-01-19 10:28:00,66.7,64.9,30.18,SW,225,0.0,3.0,94,0.04,,---,0.04,VWS V14.01,2013-01-19 15:28:00,
2013-01-19 10:30:00,68.4,66.3,30.16,SE,134,0.0,2.0,93,0.02,,---,0.04,VWS V14.01,2013-01-19 15:30:00,
2013-01-19 10:33:00,66.7,64.9,30.18,SW,225,0.0,1.0,94,0.02,,---,0.04,VWS V14.01,2013-01-19 15:33:00,
2013-01-19 10:38:00,66.9,65.1,30.18,SW,225,0.0,1.0,94,0.02,,---,0.04,VWS V14.01,2013-01-19 15:38:00,
2013-01-19 10:43:00,67.0,65.2,30.18,ENE,67,0.0,2.0,94,0.02,,---,0.04,VWS V14.01,2013-01-19 15:43:00,
2013-01-19 10:48:00,67.2,65.4,30.17,ENE,67,0.0,2.0,94,0.02,,---,0.04,VWS V14.01,2013-01-19 15:48:00,
2013-01-19 10:53:00,67.4,65.6,30.17,ENE,67,0.0,2.0,94,0.02,,---,0.04,VWS V14.01,2013-01-19 15:53:00,
2013-01-19 10:58:00,67.6,65.8,30.17,ENE,67,0.0,2.0,94,0.02,,---,0.04,VWS V14.01,2013-01-19 15:58:00,
2013-01-19 11:00:00,68.2,66.1,30.15,SE,141,0.0,3.0,93,0.02,,---,0.06,VWS V14.01,2013-01-19 16:00:00,
2013-01-19 11:03:00,67.9,66.1,30.17,ENE,59,0.0,1.0,94,0.02,,---,0.04,VWS V14.01,2013-01-19 16:03:00,
2013-01-19 11:08:00,68.1,66.3,30.17,ENE,59,1.0,1.0,94,0.02,,---,0.04,VWS V14.01,2013-01-19 16:08:00,
2013-01-19 11:13:00,68.0,66.2,30.17,ENE,58,0.0,2.0,94,0.02,,---,0.04,VWS V14.01,2013-01-19 16:13:00,
2013-01-19 11:18:00,68.1,66.3,30.16,ENE,58,0.0,2.0,94,0.02,,---,0.04,VWS V14.01,2013-01-19 16:18:00,
2013-01-19 11:23:00,68.3,66.5,30.16,ENE,58,0.0,2.0,94,0.02,,---,0.04,VWS V14.01,2013-01-19 16:23:00,
2013-01-19 11:28:00,68.4,66.6,30.16,SE,131,1.0,2.0,94,0.02,,---,0.04,VWS V14.01,2013-01-19 16:28:00,
2013-01-19 11:30:00,68.6,66.8,30.13,South,177,0.0,2.0,94,0.03,,---,0.07,VWS V14.01,2013-01-19 16:30:00,
2013-01-19 11:33:00,68.4,66.3,30.16,SE,134,0.0,0.0,93,0.00,,---,0.04,VWS V14.01,2013-01-19 16:33:00,
2013-01-19 11:38:00,68.4,66.3,30.16,SE,134,0.0,1.0,93,0.00,,---,0.04,VWS V14.01,2013-01-19 16:38:00,
2013-01-19 11:43:00,68.4,66.3,30.16,SE,134,0.0,1.0,93,0.01,,---,0.05,VWS V14.01,2013-01-19 16:43:00,
2013-01-19 11:48:00,68.4,66.3,30.15,ESE,117,0.0,3.0,93,0.01,,---,0.05,VWS V14.01,2013-01-19 16:48:00,
2013-01-19 11:53:00,68.3,66.2,30.15,SSE,161,2.0,3.0,93,0.02,,---,0.06,VWS V14.01,2013-01-19 16:53:00,
2013-01-19 11:58:00,68.2,66.1,30.15,SE,141,0.0,3.0,93,0.02,,---,0.06,VWS V14.01,2013-01-19 16:58:00,
2013-01-19 12:00:00,68.9,66.8,30.11,NW,316,2.0,3.0,93,0.03,,---,0.07,VWS V14.01,2013-01-19 17:00:00,
2013-01-19 12:03:00,68.2,66.4,30.14,SE,141,0.0,0.0,94,0.02,,---,0.06,VWS V14.01,2013-01-19 17:03:00,
2013-01-19 12:08:00,68.2,66.1,30.14,SE,141,0.0,0.0,93,0.03,,---,0.07,VWS V14.01,2013-01-19 17:08:00,
2013-01-19 12:13:00,68.3,66.5,30.14,SE,141,0.0,1.0,94,0.03,,---,0.07,VWS V14.01,2013-01-19 17:13:00,
2013-01-19 12:18:00,68.4,66.6,30.14,SE,141,0.0,1.0,94,0.03,,---,0.07,VWS V14.01,2013-01-19 17:18:00,
2013-01-19 12:23:00,68.4,66.6,30.13,SE,141,0.0,1.0,94,0.03,,---,0.07,VWS V14.01,2013-01-19 17:23:00,
2013-01-19 12:28:00,68.6,66.8,30.13,South,170,2.0,2.0,94,0.03,,---,0.07,VWS V14.01,2013-01-19 17:28:00,
2013-01-19 12:30:00,68.7,66.6,30.10,NE,42,1.0,2.0,93,0.04,,---,0.10,VWS V14.01,2013-01-19 17:30:00,
2013-01-19 12:33:00,68.7,66.9,30.13,West,275,0.0,1.0,94,0.03,,---,0.07,VWS V14.01,2013-01-19 17:33:00,
2013-01-19 12:38:00,68.8,67.0,30.12,West,275,0.0,1.0,94,0.03,,---,0.07,VWS V14.01,2013-01-19 17:38:00,
2013-01-19 12:43:00,68.9,67.1,30.12,West,275,0.0,1.0,94,0.03,,---,0.07,VWS V14.01,2013-01-19 17:43:00,
2013-01-19 12:48:00,68.9,67.1,30.12,West,275,0.0,1.0,94,0.03,,---,0.07,VWS V14.01,2013-01-19 17:48:00,
2013-01-19 12:54:00,69.1,67.3,30.12,NW,325,0.0,2.0,94,0.03,,---,0.07,VWS V14.01,2013-01-19 17:54:00,
2013-01-19 12:59:00,68.9,66.8,30.11,NW,316,2.0,3.0,93,0.03,,---,0.07,VWS V14.01,2013-01-19 17:59:00,
2013-01-19 13:00:00,69.6,67.8,30.08,NE,42,1.0,2.0,94,0.03,,---,0.10,VWS V14.01,2013-01-19 18:00:00,
2013-01-19 13:04:00,68.9,67.1,30.11,NW,317,1.0,2.0,94,0.02,,---,0.08,VWS V14.01,2013-01-19 18:04:00,
2013-01-19 13:09:00,69.0,67.2,30.10,NW,317,0.0,2.0,94,0.02,,---,0.08,VWS V14.01,2013-01-19 18:09:00,
2013-01-19 13:14:00,68.8,66.7,30.10,NE,42,0.0,2.0,93,0.02,,---,0.08,VWS V14.01,2013-01-19 18:14:00,
2013-01-19 13:19:00,68.7,66.6,30.10,NE,42,0.0,2.0,93,0.02,,---,0.08,VWS V14.01,2013-01-19 18:19:00,
2013-01-19 13:24:00,68.7,66.6,30.10,NE,42,0.0,2.0,93,0.03,,---,0.09,VWS V14.01,2013-01-19 18:24:00,
2013-01-19 13:30:00,68.7,66.6,30.10,NE,42,0.0,2.0,93,0.04,,---,0.10,VWS V14.01,2013-01-19 18:30:00,
2013-01-19 13:35:00,68.7,66.9,30.10,NE,42,0.0,1.0,94,0.03,,---,0.10,VWS V14.01,2013-01-19 18:35:00,
2013-01-19 13:40:00,68.8,67.0,30.09,NE,42,0.0,1.0,94,0.03,,---,0.10,VWS V14.01,2013-01-19 18:40:00,
2013-01-19 13:49:00,68.8,66.7,30.09,NE,42,0.0,2.0,93,0.03,,---,0.10,VWS V14.01,2013-01-19 18:49:00,
2013-01-19 13:54:00,69.1,67.3,30.08,NE,42,0.0,2.0,94,0.03,,---,0.10,VWS V14.01,2013-01-19 18:54:00,
2013-01-19 13:59:00,69.5,67.7,30.08,NE,42,0.0,2.0,94,0.03,,---,0.10,VWS V14.01,2013-01-19 18:59:00,
2013-01-19 14:00:00,70.6,67.2,30.08,ENE,68,0.0,1.0,89,0.00,,---,0.10,VWS V14.01,2013-01-19 19:00:00,
2013-01-19 14:04:00,69.7,67.6,30.08,NE,42,0.0,1.0,93,0.03,,---,0.10,VWS V14.01,2013-01-19 19:04:00,
2013-01-19 14:10:00,69.6,67.2,30.08,SE,138,0.0,1.0,92,0.03,,---,0.10,VWS V14.01,2013-01-19 19:10:00,
2013-01-19 14:15:00,69.5,67.4,30.08,SE,138,0.0,1.0,93,0.03,,---,0.10,VWS V14.01,2013-01-19 19:15:00,
2013-01-19 14:20:00,69.6,67.5,30.08,SE,125,0.0,1.0,93,0.03,,---,0.10,VWS V14.01,2013-01-19 19:20:00,
2013-01-19 14:25:00,69.8,67.7,30.08,ESE,120,0.0,1.0,93,0.03,,---,0.10,VWS V14.01,2013-01-19 19:25:00,
2013-01-19 14:30:00,69.8,67.1,30.07,ESE,117,1.0,1.0,91,0.00,,---,0.10,VWS V14.01,2013-01-19 19:30:00,
2013-01-19 14:35:00,70.0,66.9,30.08,NE,54,0.0,1.0,90,0.00,,---,0.10,VWS V14.01,2013-01-19 19:35:00,
2013-01-19 14:40:00,70.2,66.5,30.07,NE,54,0.0,1.0,88,0.00,,---,0.10,VWS V14.01,2013-01-19 19:40:00,
2013-01-19 14:45:00,70.2,65.8,30.07,ENE,69,0.0,1.0,86,0.00,,---,0.10,VWS V14.01,2013-01-19 19:45:00,
2013-01-19 14:50:00,70.4,66.7,30.07,ENE,69,0.0,1.0,88,0.00,,---,0.10,VWS V14.01,2013-01-19 19:50:00,
2013-01-19 14:56:00,70.5,66.8,30.08,ENE,70,0.0,1.0,88,0.00,,---,0.10,VWS V14.01,2013-01-19 19:56:00,
2013-01-19 15:00:00,69.1,67.0,30.07,ESE,123,0.0,3.0,93,0.00,,---,0.10,VWS V14.01,2013-01-19 20:00:00,
2013-01-19 15:02:00,70.7,67.3,30.08,ENE,68,0.0,0.0,89,0.00,,---,0.10,VWS V14.01,2013-01-19 20:02:00,
2013-01-19 15:07:00,70.7,67.3,30.07,ENE,71,0.0,1.0,89,0.00,,---,0.10,VWS V14.01,2013-01-19 20:07:00,
2013-01-19 15:12:00,70.6,67.2,30.07,ESE,109,1.0,3.0,89,0.00,,---,0.10,VWS V14.01,2013-01-19 20:12:00,
2013-01-19 15:17:00,70.3,67.2,30.08,ESE,115,1.0,3.0,90,0.00,,---,0.10,VWS V14.01,2013-01-19 20:17:00,
2013-01-19 15:22:00,70.0,66.9,30.08,NE,53,2.0,3.0,90,0.00,,---,0.10,VWS V14.01,2013-01-19 20:22:00,
2013-01-19 15:28:00,69.6,66.5,30.07,ESE,121,1.0,4.0,90,0.00,,---,0.10,VWS V14.01,2013-01-19 20:28:00,
2013-01-19 15:30:00,69.0,66.9,30.07,ESE,118,0.0,1.0,93,0.00,,---,0.10,VWS V14.01,2013-01-19 20:30:00,
2013-01-19 15:33:00,69.4,66.3,30.07,ESE,107,1.0,3.0,90,0.00,,---,0.10,VWS V14.01,2013-01-19 20:33:00,
2013-01-19 15:38:00,69.1,66.4,30.07,ESE,115,0.0,3.0,91,0.00,,---,0.10,VWS V14.01,2013-01-19 20:38:00,
2013-01-19 15:43:00,69.0,66.6,30.07,ESE,115,0.0,3.0,92,0.00,,---,0.10,VWS V14.01,2013-01-19 20:43:00,
2013-01-19 15:49:00,68.9,66.8,30.07,ESE,115,0.0,3.0,93,0.00,,---,0.10,VWS V14.01,2013-01-19 20:49:00,
2013-01-19 15:54:00,69.0,66.9,30.07,ESE,115,0.0,3.0,93,0.00,,---,0.10,VWS V14.01,2013-01-19 20:54:00,
2013-01-19 15:59:00,69.0,66.9,30.07,ESE,123,0.0,3.0,93,0.00,,---,0.10,VWS V14.01,2013-01-19 20:59:00,
2013-01-19 16:00:00,68.9,67.1,30.07,ESE,118,0.0,0.0,94,0.00,,---,0.10,VWS V14.01,2013-01-19 21:00:00,
2013-01-19 16:04:00,69.1,67.0,30.07,ESE,118,1.0,1.0,93,0.00,,---,0.10,VWS V14.01,2013-01-19 21:04:00,
2013-01-19 16:09:00,69.0,66.9,30.07,ESE,118,0.0,1.0,93,0.00,,---,0.10,VWS V14.01,2013-01-19 21:09:00,
2013-01-19 16:14:00,69.0,66.9,30.07,ESE,118,0.0,1.0,93,0.00,,---,0.10,VWS V14.01,2013-01-19 21:14:00,
2013-01-19 16:19:00,69.1,67.0,30.07,ESE,118,0.0,1.0,93,0.00,,---,0.10,VWS V14.01,2013-01-19 21:19:00,
2013-01-19 16:24:00,69.1,67.0,30.07,ESE,118,0.0,1.0,93,0.00,,---,0.10,VWS V14.01,2013-01-19 21:24:00,
2013-01-19 16:29:00,69.0,66.9,30.07,ESE,118,0.0,1.0,93,0.00,,---,0.10,VWS V14.01,2013-01-19 21:29:00,
2013-01-19 16:30:00,68.7,66.9,30.07,ESE,118,0.0,0.0,94,0.00,,---,0.10,VWS V14.01,2013-01-19 21:30:00,
2013-01-19 16:34:00,69.0,66.9,30.07,ESE,118,0.0,0.0,93,0.00,,---,0.10,VWS V14.01,2013-01-19 21:34:00,
2013-01-19 16:39:00,69.0,66.9,30.07,ESE,118,0.0,0.0,93,0.00,,---,0.10,VWS V14.01,2013-01-19 21:39:00,
2013-01-19 16:44:00,69.0,66.9,30.07,ESE,118,0.0,0.0,93,0.00,,---,0.10,VWS V14.01,2013-01-19 21:44:00,
2013-01-19 16:50:00,68.9,66.8,30.07,ESE,118,0.0,0.0,93,0.00,,---,0.10,VWS V14.01,2013-01-19 21:50:00,
2013-01-19 16:55:00,68.9,66.8,30.07,ESE,118,0.0,0.0,93,0.00,,---,0.10,VWS V14.01,2013-01-19 21:55:00,
2013-01-19 17:00:00,68.9,67.1,30.07,ESE,118,0.0,0.0,94,0.00,,---,0.10,VWS V14.01,2013-01-19 22:00:00,
2013-01-19 17:05:00,68.9,67.1,30.07,ESE,118,0.0,0.0,94,0.00,,---,0.10,VWS V14.01,2013-01-19 22:05:00,
2013-01-19 17:11:00,68.9,67.1,30.07,ESE,118,0.0,0.0,94,0.00,,---,0.10,VWS V14.01,2013-01-19 22:11:00,
2013-01-19 17:16:00,68.8,66.7,30.06,ESE,118,0.0,0.0,93,0.00,,---,0.10,VWS V14.01,2013-01-19 22:16:00,
2013-01-19 17:22:00,68.7,66.6,30.06,ESE,118,0.0,0.0,93,0.00,,---,0.10,VWS V14.01,2013-01-19 22:22:00,
2013-01-19 17:27:00,68.7,66.9,30.07,ESE,118,0.0,0.0,94,0.00,,---,0.10,VWS V14.01,2013-01-19 22:27:00,
2013-01-19 17:30:00,68.2,66.7,30.08,ENE,67,0.0,1.0,95,0.00,,---,0.10,VWS V14.01,2013-01-19 22:30:00,
2013-01-19 17:32:00,68.6,66.5,30.07,ESE,118,0.0,0.0,93,0.00,,---,0.10,VWS V14.01,2013-01-19 22:32:00,
2013-01-19 17:37:00,68.6,66.8,30.07,ESE,118,0.0,0.0,94,0.00,,---,0.10,VWS V14.01,2013-01-19 22:37:00,
2013-01-19 17:42:00,68.6,66.8,30.07,ESE,118,0.0,0.0,94,0.00,,---,0.10,VWS V14.01,2013-01-19 22:42:00,
2013-01-19 17:47:00,68.6,66.8,30.07,ESE,118,0.0,0.0,94,0.00,,---,0.10,VWS V14.01,2013-01-19 22:47:00,
2013-01-19 17:52:00,68.5,66.7,30.07,ESE,118,0.0,0.0,94,0.00,,---,0.10,VWS V14.01,2013-01-19 22:52:00,
2013-01-19 17:57:00,68.5,66.7,30.07,ESE,118,0.0,0.0,94,0.00,,---,0.10,VWS V14.01,2013-01-19 22:57:00,
2013-01-19 18:00:00,68.0,66.5,30.09,ENE,67,0.0,1.0,95,0.01,,---,0.11,VWS V14.01,2013-01-19 23:00:00,
2013-01-19 18:02:00,68.5,66.7,30.07,ESE,118,0.0,0.0,94,0.00,,---,0.10,VWS V14.01,2013-01-19 23:02:00,
2013-01-19 18:07:00,68.4,66.6,30.07,ESE,118,0.0,0.0,94,0.00,,---,0.10,VWS V14.01,2013-01-19 23:07:00,
2013-01-19 18:12:00,68.4,66.6,30.08,ESE,118,0.0,0.0,94,0.00,,---,0.10,VWS V14.01,2013-01-19 23:12:00,
2013-01-19 18:17:00,68.3,66.8,30.08,ESE,118,0.0,0.0,95,0.00,,---,0.10,VWS V14.01,2013-01-19 23:17:00,
2013-01-19 18:22:00,68.3,66.8,30.08,ESE,118,0.0,0.0,95,0.00,,---,0.10,VWS V14.01,2013-01-19 23:22:00,
2013-01-19 18:28:00,68.2,66.7,30.08,ENE,67,0.0,1.0,95,0.00,,---,0.10,VWS V14.01,2013-01-19 23:28:00,
2013-01-19 18:30:00,67.8,66.3,30.09,NNW,327,0.0,2.0,95,0.04,,---,0.14,VWS V14.01,2013-01-19 23:30:00,
2013-01-19 18:33:00,68.1,66.6,30.08,ENE,67,0.0,0.0,95,0.00,,---,0.10,VWS V14.01,2013-01-19 23:33:00,
2013-01-19 18:38:00,68.1,66.3,30.08,ENE,67,0.0,1.0,94,0.00,,---,0.10,VWS V14.01,2013-01-19 23:38:00,
2013-01-19 18:43:00,68.0,66.2,30.08,ENE,67,0.0,1.0,94,0.00,,---,0.10,VWS V14.01,2013-01-19 23:43:00,
2013-01-19 18:48:00,68.0,66.2,30.08,ENE,67,0.0,1.0,94,0.00,,---,0.10,VWS V14.01,2013-01-19 23:48:00,
2013-01-19 18:53:00,68.0,66.5,30.08,ENE,67,0.0,1.0,95,0.01,,---,0.11,VWS V14.01,2013-01-19 23:53:00,
2013-01-19 18:58:00,68.0,66.5,30.08,ENE,67,0.0,1.0,95,0.01,,---,0.11,VWS V14.01,2013-01-19 23:58:00,
2013-01-19 19:00:00,67.1,65.9,30.09,NNW,342,0.0,1.0,96,0.04,,---,0.14,VWS V14.01,2013-01-20 00:00:00,
2013-01-19 19:03:00,68.0,66.5,30.09,ENE,67,0.0,0.0,95,0.02,,---,0.12,VWS V14.01,2013-01-20 00:03:00,
2013-01-19 19:09:00,68.0,66.5,30.09,ENE,67,1.0,2.0,95,0.03,,---,0.13,VWS V14.01,2013-01-20 00:09:00,
2013-01-19 19:14:00,68.0,66.5,30.09,ENE,67,0.0,2.0,95,0.04,,---,0.14,VWS V14.01,2013-01-20 00:14:00,
2013-01-19 19:19:00,68.0,66.5,30.09,ENE,67,0.0,2.0,95,0.04,,---,0.14,VWS V14.01,2013-01-20 00:19:00,
2013-01-19 19:24:00,67.9,66.4,30.09,ENE,67,0.0,2.0,95,0.04,,---,0.14,VWS V14.01,2013-01-20 00:24:00,
2013-01-19 19:29:00,67.8,66.3,30.09,NNW,327,0.0,2.0,95,0.04,,---,0.14,VWS V14.01,2013-01-20 00:29:00,
2013-01-19 19:30:00,66.7,65.5,30.09,NNW,340,0.0,0.0,96,0.03,,---,0.14,VWS V14.01,2013-01-20 00:30:00,
2013-01-19 19:34:00,67.7,66.2,30.09,NNW,327,0.0,1.0,95,0.04,,---,0.14,VWS V14.01,2013-01-20 00:34:00,
2013-01-19 19:39:00,67.6,66.4,30.09,NNW,342,0.0,1.0,96,0.04,,---,0.14,VWS V14.01,2013-01-20 00:39:00,
2013-01-19 19:44:00,67.5,66.3,30.09,NNW,342,0.0,1.0,96,0.04,,---,0.14,VWS V14.01,2013-01-20 00:44:00,
2013-01-19 19:49:00,67.4,66.2,30.09,NNW,342,0.0,1.0,96,0.04,,---,0.14,VWS V14.01,2013-01-20 00:49:00,
2013-01-19 19:54:00,67.3,65.8,30.09,NNW,342,0.0,1.0,95,0.04,,---,0.14,VWS V14.01,2013-01-20 00:54:00,
2013-01-19 19:59:00,67.2,66.0,30.09,NNW,342,0.0,1.0,96,0.04,,---,0.14,VWS V14.01,2013-01-20 00:59:00,
2013-01-19 20:00:00,66.4,65.2,30.09,NNW,332,0.0,1.0,96,0.00,,---,0.14,VWS V14.01,2013-01-20 01:00:00,
2013-01-19 20:04:00,67.1,65.9,30.09,NNW,342,0.0,0.0,96,0.03,,---,0.14,VWS V14.01,2013-01-20 01:04:00,
2013-01-19 20:10:00,67.0,65.8,30.09,NNW,342,0.0,0.0,96,0.03,,---,0.14,VWS V14.01,2013-01-20 01:10:00,
2013-01-19 20:15:00,66.9,65.7,30.09,NNW,342,0.0,0.0,96,0.03,,---,0.14,VWS V14.01,2013-01-20 01:15:00,
2013-01-19 20:20:00,66.8,65.6,30.09,NNW,342,0.0,0.0,96,0.03,,---,0.14,VWS V14.01,2013-01-20 01:20:00,
2013-01-19 20:25:00,66.7,65.5,30.09,NNW,340,0.0,0.0,96,0.03,,---,0.14,VWS V14.01,2013-01-20 01:25:00,
2013-01-19 20:30:00,66.7,65.5,30.09,NNW,340,0.0,0.0,96,0.03,,---,0.14,VWS V14.01,2013-01-20 01:30:00,
2013-01-19 20:35:00,66.6,65.4,30.09,NNW,340,0.0,0.0,96,0.00,,---,0.14,VWS V14.01,2013-01-20 01:35:00,
2013-01-19 20:41:00,66.5,65.3,30.09,NNW,340,0.0,0.0,96,0.00,,---,0.14,VWS V14.01,2013-01-20 01:41:00,
2013-01-19 20:46:00,66.5,65.3,30.09,NNW,340,0.0,0.0,96,0.00,,---,0.14,VWS V14.01,2013-01-20 01:46:00,
2013-01-19 20:51:00,66.4,65.2,30.09,NNW,332,0.0,1.0,96,0.00,,---,0.14,VWS V14.01,2013-01-20 01:51:00,
2013-01-19 20:56:00,66.4,65.2,30.09,NNW,332,0.0,1.0,96,0.00,,---,0.14,VWS V14.01,2013-01-20 01:56:00,
2013-01-19 21:00:00,66.4,65.5,30.09,NW,312,0.0,2.0,97,0.00,,---,0.14,VWS V14.01,2013-01-20 02:00:00,
2013-01-19 21:01:00,66.4,65.2,30.09,NNW,332,0.0,0.0,96,0.00,,---,0.14,VWS V14.01,2013-01-20 02:01:00,
2013-01-19 21:07:00,66.4,65.2,30.09,West,279,0.0,2.0,96,0.00,,---,0.14,VWS V14.01,2013-01-20 02:07:00,
2013-01-19 21:12:00,66.3,65.1,30.09,West,279,0.0,2.0,96,0.00,,---,0.14,VWS V14.01,2013-01-20 02:12:00,
2013-01-19 21:17:00,66.3,65.1,30.09,West,279,0.0,2.0,96,0.00,,---,0.14,VWS V14.01,2013-01-20 02:17:00,
2013-01-19 21:22:00,66.3,65.1,30.09,West,279,0.0,2.0,96,0.00,,---,0.14,VWS V14.01,2013-01-20 02:22:00,
2013-01-19 21:28:00,66.3,65.1,30.09,West,279,0.0,2.0,96,0.00,,---,0.14,VWS V14.01,2013-01-20 02:28:00,
2013-01-19 21:30:00,66.3,65.1,30.08,NW,312,0.0,1.0,96,0.00,,---,0.14,VWS V14.01,2013-01-20 02:30:00,
2013-01-19 21:33:00,66.3,65.1,30.09,NW,312,0.0,2.0,96,0.00,,---,0.14,VWS V14.01,2013-01-20 02:33:00,
2013-01-19 21:38:00,66.4,65.5,30.09,NW,312,0.0,2.0,97,0.00,,---,0.14,VWS V14.01,2013-01-20 02:38:00,
2013-01-19 21:43:00,66.3,65.4,30.09,NW,312,0.0,2.0,97,0.00,,---,0.14,VWS V14.01,2013-01-20 02:43:00,
2013-01-19 21:48:00,66.4,65.5,30.09,NW,312,0.0,2.0,97,0.00,,---,0.14,VWS V14.01,2013-01-20 02:48:00,
2013-01-19 21:53:00,66.4,65.5,30.09,NW,312,0.0,2.0,97,0.00,,---,0.14,VWS V14.01,2013-01-20 02:53:00,
2013-01-19 21:58:00,66.4,65.5,30.09,NW,312,0.0,2.0,97,0.00,,---,0.14,VWS V14.01,2013-01-20 02:58:00,
2013-01-19 22:00:00,66.2,65.3,30.07,NW,312,0.0,1.0,97,0.00,,---,0.14,VWS V14.01,2013-01-20 03:00:00,
2013-01-19 22:03:00,66.4,65.5,30.08,NW,312,0.0,0.0,97,0.00,,---,0.14,VWS V14.01,2013-01-20 03:03:00,
2013-01-19 22:08:00,66.4,65.5,30.08,NW,312,0.0,1.0,97,0.00,,---,0.14,VWS V14.01,2013-01-20 03:08:00,
2013-01-19 22:13:00,66.4,65.5,30.08,NW,312,0.0,1.0,97,0.00,,---,0.14,VWS V14.01,2013-01-20 03:13:00,
2013-01-19 22:18:00,66.4,65.5,30.08,NW,312,0.0,1.0,97,0.00,,---,0.14,VWS V14.01,2013-01-20 03:18:00,
2013-01-19 22:23:00,66.4,65.5,30.08,NW,312,0.0,1.0,97,0.00,,---,0.14,VWS V14.01,2013-01-20 03:23:00,
2013-01-19 22:29:00,66.3,65.1,30.08,NW,312,0.0,1.0,96,0.00,,---,0.14,VWS V14.01,2013-01-20 03:29:00,
2013-01-19 22:30:00,65.7,64.5,30.07,NW,312,0.0,0.0,96,0.00,,---,0.14,VWS V14.01,2013-01-20 03:30:00,
2013-01-19 22:34:00,66.3,65.1,30.08,NW,312,0.0,0.0,96,0.00,,---,0.14,VWS V14.01,2013-01-20 03:34:00,
2013-01-19 22:39:00,66.3,65.1,30.08,NW,312,0.0,0.0,96,0.00,,---,0.14,VWS V14.01,2013-01-20 03:39:00,
2013-01-19 22:44:00,66.3,65.1,30.08,NW,312,0.0,1.0,96,0.00,,---,0.14,VWS V14.01,2013-01-20 03:44:00,
2013-01-19 22:49:00,66.3,65.4,30.07,NW,312,0.0,1.0,97,0.00,,---,0.14,VWS V14.01,2013-01-20 03:49:00,
2013-01-19 22:54:00,66.2,65.3,30.07,NW,312,0.0,1.0,97,0.00,,---,0.14,VWS V14.01,2013-01-20 03:54:00,
2013-01-19 22:59:00,66.2,65.3,30.07,NW,312,0.0,1.0,97,0.00,,---,0.14,VWS V14.01,2013-01-20 03:59:00,
2013-01-19 23:00:00,65.1,63.9,30.06,NW,312,0.0,0.0,96,0.00,,---,0.14,VWS V14.01,2013-01-20 04:00:00,
2013-01-19 23:04:00,66.2,65.0,30.07,NW,312,0.0,0.0,96,0.00,,---,0.14,VWS V14.01,2013-01-20 04:04:00,
2013-01-19 23:09:00,66.1,64.9,30.07,NW,312,0.0,0.0,96,0.00,,---,0.14,VWS V14.01,2013-01-20 04:09:00,
2013-01-19 23:14:00,65.9,65.0,30.07,NW,312,0.0,0.0,97,0.00,,---,0.14,VWS V14.01,2013-01-20 04:14:00,
2013-01-19 23:19:00,65.8,64.9,30.07,NW,312,0.0,0.0,97,0.00,,---,0.14,VWS V14.01,2013-01-20 04:19:00,
2013-01-19 23:25:00,65.7,64.8,30.07,NW,312,0.0,0.0,97,0.00,,---,0.14,VWS V14.01,2013-01-20 04:25:00,
2013-01-19 23:29:00,65.7,64.5,30.07,NW,312,0.0,0.0,96,0.00,,---,0.14,VWS V14.01,2013-01-20 04:29:00,
2013-01-19 23:30:00,64.5,63.6,30.06,NW,312,0.0,0.0,97,0.00,,---,0.00,VWS V14.01,2013-01-20 04:30:00,
2013-01-19 23:35:00,65.6,64.7,30.07,NW,312,0.0,0.0,97,0.00,,---,0.14,VWS V14.01,2013-01-20 04:35:00,
2013-01-19 23:40:00,65.6,64.7,30.07,NW,312,0.0,0.0,97,0.00,,---,0.14,VWS V14.01,2013-01-20 04:40:00,
2013-01-19 23:45:00,65.5,64.6,30.07,NW,312,0.0,0.0,97,0.00,,---,0.14,VWS V14.01,2013-01-20 04:45:00,
2013-01-19 23:50:00,65.4,64.2,30.06,NW,312,0.0,0.0,96,0.00,,---,0.14,VWS V14.01,2013-01-20 04:50:00,
2013-01-19 23:55:00,65.3,64.1,30.06,NW,312,0.0,0.0,96,0.00,,---,0.14,VWS V14.01,2013-01-20 04:55:00,